createdAt,value
2023-02-01T00:02:21.070Z,95841.56
2023-02-01T00:06:03.979Z,95825.69
2023-02-01T00:09:48.365Z,95853.31
2023-02-01T00:13:31.820Z,95828.94
2023-02-01T00:17:14.688Z,95840.69
2023-02-01T00:20:57.365Z,95824.78
2023-02-01T00:24:40.098Z,95814.13
2023-02-01T00:28:24.255Z,95824.78
2023-02-01T00:32:07.037Z,95828.09
2023-02-01T00:35:49.815Z,95819.03
2023-02-01T00:39:32.537Z,95837.91
2023-02-01T00:43:15.228Z,95815.22
2023-02-01T00:46:59.319Z,95815.81
2023-02-01T00:50:43.793Z,95822.25
2023-02-01T00:54:26.638Z,95807.75
2023-02-01T00:58:10.440Z,95816.00
2023-02-01T01:01:53.185Z,95804.53
2023-02-01T01:05:37.247Z,95808.97
2023-02-01T01:09:19.929Z,95806.25
2023-02-01T01:13:02.642Z,95815.00
2023-02-01T01:16:45.389Z,95800.78
2023-02-01T01:20:28.154Z,95799.13
2023-02-01T01:24:12.307Z,95788.75
2023-02-01T01:27:55.117Z,95801.84
2023-02-01T01:31:37.957Z,95796.94
2023-02-01T01:35:20.775Z,95794.88
2023-02-01T01:39:03.577Z,95803.38
2023-02-01T01:42:47.831Z,95792.56
2023-02-01T01:46:32.155Z,95789.19
2023-02-01T01:50:19.322Z,95786.50
2023-02-01T01:54:04.625Z,95776.44
2023-02-01T01:57:53.888Z,95759.22
2023-02-01T02:01:36.739Z,95767.59
2023-02-01T02:05:20.198Z,95750.66
2023-02-01T02:09:04.755Z,95750.94
2023-02-01T02:12:51.133Z,95747.97
2023-02-01T02:16:43.879Z,95759.03
2023-02-01T02:20:55.491Z,95765.84
2023-02-01T02:25:03.058Z,95762.97
2023-02-01T02:29:17.758Z,95768.22
2023-02-01T02:33:26.745Z,95757.69
2023-02-01T02:37:18.010Z,95807.00
2023-02-01T02:41:07.568Z,95761.63
2023-02-01T02:45:10.093Z,95769.69
2023-02-01T02:48:57.137Z,95753.25
2023-02-01T02:52:58.912Z,95763.47
2023-02-01T02:56:59.938Z,95760.19
2023-02-01T03:01:01.963Z,95753.06
2023-02-01T03:04:46.057Z,95743.75
2023-02-01T03:08:30.535Z,95757.69
2023-02-01T03:12:32.551Z,95747.28
2023-02-01T03:16:17.773Z,95728.06
2023-02-01T03:20:03.496Z,95758.94
2023-02-01T03:23:46.710Z,95745.38
2023-02-01T03:27:33.410Z,95724.31
2023-02-01T03:31:16.106Z,95738.19
2023-02-01T03:34:58.842Z,95730.25
2023-02-01T03:38:49.005Z,95731.88
2023-02-01T03:42:35.850Z,95725.59
2023-02-01T03:46:23.350Z,95708.66
2023-02-01T03:50:08.650Z,95717.28
2023-02-01T03:53:54.368Z,95719.56
2023-02-01T03:57:40.609Z,95752.78
2023-02-01T04:01:23.395Z,95719.31
2023-02-01T04:05:06.909Z,95740.09
2023-02-01T04:08:49.591Z,95702.31
2023-02-01T04:12:33.782Z,95708.31
2023-02-01T04:16:16.597Z,95737.88
2023-02-01T04:19:59.239Z,95730.38
2023-02-01T04:23:41.879Z,95734.31
2023-02-01T04:31:07.791Z,95708.63
2023-02-01T04:34:50.481Z,95714.78
2023-02-01T04:38:35.876Z,95718.19
2023-02-01T04:42:18.536Z,95722.28
2023-02-01T04:46:03.241Z,95718.72
2023-02-01T04:49:47.263Z,95730.06
2023-02-01T04:53:30.744Z,95714.78
2023-02-01T04:57:14.476Z,95743.06
2023-02-01T05:00:57.178Z,95699.56
2023-02-01T05:04:39.995Z,95722.00
2023-02-01T05:08:27.930Z,95711.22
2023-02-01T05:12:29.322Z,95733.88
2023-02-01T05:16:12.105Z,95722.28
2023-02-01T05:19:54.896Z,95735.44
2023-02-01T05:23:59.399Z,95722.56
2023-02-01T05:27:42.127Z,95726.00
2023-02-01T05:31:24.866Z,95722.94
2023-02-01T05:35:08.707Z,95730.75
2023-02-01T05:38:52.786Z,95733.72
2023-02-01T05:42:38.609Z,95708.03
2023-02-01T05:46:21.397Z,95711.53
2023-02-01T05:50:05.073Z,95726.88
2023-02-01T05:53:47.753Z,95718.50
2023-02-01T05:57:32.036Z,95739.44
2023-02-01T06:01:14.701Z,95734.53
2023-02-01T06:05:00.128Z,95717.00
2023-02-01T06:08:42.821Z,95711.97
2023-02-01T06:12:25.443Z,95708.41
2023-02-01T06:16:09.773Z,95704.16
2023-02-01T06:19:53.293Z,95702.69
2023-02-01T06:23:36.871Z,95732.47
2023-02-01T06:27:19.562Z,95760.06
2023-02-01T06:31:07.619Z,95713.59
2023-02-01T06:34:53.431Z,95714.50
2023-02-01T06:38:37.078Z,95707.75
2023-02-01T06:42:19.751Z,95702.84
2023-02-01T06:46:03.276Z,95705.81
2023-02-01T06:49:45.929Z,95705.81
2023-02-01T06:53:30.294Z,95714.28
2023-02-01T06:57:13.848Z,95715.91
2023-02-01T07:00:56.607Z,95710.13
2023-02-01T07:04:39.363Z,95700.31
2023-02-01T07:08:22.001Z,95699.72
2023-02-01T07:12:06.736Z,95707.38
2023-02-01T07:15:49.490Z,95691.63
2023-02-01T07:19:32.325Z,95712.03
2023-02-01T07:23:15.069Z,95699.72
2023-02-01T07:26:57.773Z,95705.72
2023-02-01T07:30:42.712Z,95707.06
2023-02-01T07:34:25.626Z,95665.78
2023-02-01T07:38:11.253Z,95664.38
2023-02-01T07:41:53.931Z,95674.47
2023-02-01T07:45:37.299Z,95708.63
2023-02-01T07:49:21.410Z,95687.16
2023-02-01T07:53:04.122Z,95682.63
2023-02-01T07:56:46.828Z,95689.16
2023-02-01T08:00:47.079Z,95687.88
2023-02-01T08:04:31.855Z,95700.59
2023-02-01T08:08:14.553Z,95711.81
2023-02-01T08:11:57.229Z,95716.94
2023-02-01T08:15:40.309Z,95738.25
2023-02-01T08:19:23.028Z,95716.34
2023-02-01T08:23:10.016Z,95749.41
2023-02-01T08:26:52.826Z,95727.16
2023-02-01T08:30:35.708Z,95727.59
2023-02-01T08:34:18.529Z,95739.94
2023-02-01T08:38:01.226Z,95758.81
2023-02-01T08:42:05.263Z,95747.78
2023-02-01T08:45:47.972Z,95732.84
2023-02-01T08:49:30.897Z,95743.44
2023-02-01T08:53:14.998Z,95744.78
2023-02-01T08:56:59.314Z,95755.84
2023-02-01T09:00:42.223Z,95733.94
2023-02-01T09:04:24.999Z,95746.50
2023-02-01T09:08:07.923Z,95732.19
2023-02-01T09:11:51.266Z,95742.63
2023-02-01T09:15:35.575Z,95783.13
2023-02-01T09:19:27.115Z,95738.53
2023-02-01T09:23:10.029Z,95744.75
2023-02-01T09:26:53.689Z,95757.81
2023-02-01T09:30:38.485Z,95747.09
2023-02-01T09:34:21.305Z,95726.25
2023-02-01T09:38:06.768Z,95776.28
2023-02-01T09:41:56.287Z,95754.63
2023-02-01T09:45:48.053Z,95753.81
2023-02-01T09:49:33.132Z,95766.47
2023-02-01T09:53:24.038Z,95780.94
2023-02-01T09:57:10.985Z,95748.59
2023-02-01T10:00:56.444Z,95730.25
2023-02-01T10:04:39.216Z,95750.63
2023-02-01T10:08:28.204Z,95814.22
2023-02-01T10:12:30.224Z,95778.03
2023-02-01T10:16:26.632Z,95775.78
2023-02-01T10:20:14.569Z,95760.34
2023-02-01T10:24:17.429Z,95760.66
2023-02-01T10:28:02.841Z,95793.53
2023-02-01T10:31:47.487Z,95818.41
2023-02-01T10:35:33.582Z,95746.16
2023-02-01T10:39:16.409Z,95754.94
2023-02-01T10:43:01.128Z,95775.47
2023-02-01T10:46:44.028Z,95753.00
2023-02-01T10:50:40.175Z,95740.78
2023-02-01T10:54:24.409Z,95755.56
2023-02-01T10:58:09.268Z,95783.50
2023-02-01T11:01:59.752Z,95751.59
2023-02-01T11:05:47.172Z,95758.22
2023-02-01T11:09:29.940Z,95761.69
2023-02-01T11:13:17.165Z,95766.28
2023-02-01T11:17:01.946Z,95768.22
2023-02-01T11:20:44.931Z,95771.84
2023-02-01T11:24:31.301Z,95770.25
2023-02-01T11:28:14.460Z,95789.16
2023-02-01T11:31:58.740Z,95756.22
2023-02-01T11:35:41.985Z,95788.75
2023-02-01T11:39:27.764Z,95773.44
2023-02-01T11:43:16.275Z,95804.00
2023-02-01T11:47:20.439Z,95783.13
2023-02-01T11:51:15.229Z,95780.03
2023-02-01T11:55:09.178Z,95781.81
2023-02-01T11:59:14.437Z,95764.88
2023-02-01T12:03:25.324Z,95788.97
2023-02-01T12:07:13.789Z,95843.63
2023-02-01T12:11:33.289Z,95750.56
2023-02-01T12:15:29.886Z,95743.50
2023-02-01T12:19:22.942Z,95705.91
2023-02-01T12:23:16.435Z,95727.03
2023-02-01T12:27:12.676Z,95730.75
2023-02-01T12:31:14.228Z,95738.19
2023-02-01T12:35:15.613Z,95752.03
2023-02-01T12:39:05.101Z,95731.00
2023-02-01T12:42:53.507Z,95769.38
2023-02-01T12:46:42.392Z,95747.06
2023-02-01T12:50:29.677Z,95720.75
2023-02-01T12:54:15.834Z,95725.94
2023-02-01T12:58:05.813Z,95727.59
2023-02-01T13:01:53.329Z,95706.50
2023-02-01T13:05:42.315Z,95702.31
2023-02-01T13:09:28.513Z,95707.84
2023-02-01T13:13:16.834Z,95688.03
2023-02-01T13:17:03.058Z,95679.78
2023-02-01T13:20:51.546Z,95679.56
2023-02-01T13:24:39.171Z,95686.19
2023-02-01T13:28:26.795Z,95677.28
2023-02-01T13:33:51.324Z,95684.41
2023-02-01T13:36:58.493Z,95689.31
2023-02-01T13:40:43.417Z,95676.97
2023-02-01T13:44:30.790Z,95695.25
2023-02-01T13:48:23.136Z,95696.56
2023-02-01T13:52:06.176Z,95694.63
2023-02-01T13:55:52.564Z,95680.28
2023-02-01T13:59:50.681Z,95679.84
2023-02-01T14:03:47.105Z,95685.03
2023-02-01T14:07:29.816Z,95703.72
2023-02-01T14:11:35.816Z,95701.66
2023-02-01T14:15:25.114Z,95680.09
2023-02-01T14:19:21.623Z,95693.69
2023-02-01T14:23:04.744Z,95684.56
2023-02-01T14:26:49.075Z,95696.25
2023-02-01T14:30:32.006Z,95695.75
2023-02-01T14:34:19.333Z,95703.56
2023-02-01T14:38:03.872Z,95719.84
2023-02-01T14:41:48.424Z,95682.91
2023-02-01T14:45:52.344Z,95707.44
2023-02-01T14:49:39.813Z,95698.16
2023-02-01T14:53:25.686Z,95708.41
2023-02-01T14:57:15.435Z,95711.16
2023-02-01T15:01:00.151Z,95707.78
2023-02-01T15:04:45.022Z,95711.38
2023-02-01T15:08:30.836Z,95692.69
2023-02-01T15:12:21.340Z,95709.94
2023-02-01T15:16:12.497Z,95707.19
2023-02-01T15:19:57.591Z,95724.88
2023-02-01T15:23:40.326Z,95716.88
2023-02-01T15:27:23.164Z,95743.59
2023-02-01T15:31:07.365Z,95720.44
2023-02-01T15:34:51.716Z,95744.44
2023-02-01T15:38:41.300Z,95721.75
2023-02-01T15:42:24.025Z,95721.69
2023-02-01T15:46:11.043Z,95723.97
2023-02-01T15:49:55.404Z,95733.34
2023-02-01T15:53:39.506Z,95743.97
2023-02-01T15:57:23.924Z,95738.09
2023-02-01T16:01:07.895Z,95738.19
2023-02-01T16:04:51.903Z,95752.97
2023-02-01T16:08:35.651Z,95711.88
2023-02-01T16:12:30.056Z,95721.91
2023-02-01T16:16:14.973Z,95748.66
2023-02-01T16:19:58.203Z,95728.81
2023-02-01T16:23:40.896Z,95739.22
2023-02-01T16:27:24.908Z,95740.31
2023-02-01T16:31:09.412Z,95760.31
2023-02-01T16:34:54.304Z,95751.25
2023-02-01T16:38:37.008Z,95778.88
2023-02-01T16:42:19.843Z,95754.59
2023-02-01T16:46:04.632Z,95756.63
2023-02-01T16:49:47.457Z,95751.03
2023-02-01T16:53:33.055Z,95733.72
2023-02-01T16:57:20.761Z,95741.00
2023-02-01T17:01:04.915Z,95759.88
2023-02-01T17:04:48.842Z,95761.72
2023-02-01T17:08:35.289Z,95727.47
2023-02-01T17:12:24.040Z,95735.78
2023-02-01T17:16:14.870Z,95736.00
2023-02-01T17:19:57.585Z,95731.75
2023-02-01T17:23:41.072Z,95725.81
2023-02-01T17:27:23.831Z,95718.00
2023-02-01T17:31:07.971Z,95734.72
2023-02-01T17:34:50.822Z,95724.16
2023-02-01T17:38:34.420Z,95726.75
2023-02-01T17:42:17.149Z,95752.94
2023-02-01T17:46:01.475Z,95764.31
2023-02-01T17:49:45.602Z,95722.69
2023-02-01T17:53:29.447Z,95728.91
2023-02-01T17:57:13.870Z,95730.03
2023-02-01T18:00:56.566Z,95741.25
2023-02-01T18:04:39.237Z,95733.81
2023-02-01T18:08:25.854Z,95752.38
2023-02-01T18:12:16.223Z,95733.50
2023-02-01T18:15:59.937Z,95740.66
2023-02-01T18:19:42.904Z,95738.19
2023-02-01T18:23:26.964Z,95725.03
2023-02-01T18:27:09.951Z,95739.69
2023-02-01T18:30:52.765Z,95730.59
2023-02-01T18:34:35.488Z,95771.25
2023-02-01T18:38:18.336Z,95731.25
2023-02-01T18:42:02.373Z,95783.31
2023-02-01T18:45:46.195Z,95755.34
2023-02-01T18:49:28.885Z,95764.13
2023-02-01T18:53:14.260Z,95762.78
2023-02-01T18:56:56.922Z,95743.59
2023-02-01T19:00:40.994Z,95769.63
2023-02-01T19:04:26.118Z,95754.97
2023-02-01T19:08:11.491Z,95739.38
2023-02-01T19:11:54.483Z,95715.59
2023-02-01T19:15:40.319Z,95739.00
2023-02-01T19:19:24.514Z,95725.34
2023-02-01T19:23:07.197Z,95738.03
2023-02-01T19:26:51.387Z,95740.66
2023-02-01T19:30:34.240Z,95718.19
2023-02-01T19:34:16.994Z,95707.94
2023-02-01T19:38:01.274Z,95726.97
2023-02-01T19:41:43.894Z,95709.06
2023-02-01T19:45:26.767Z,95759.47
2023-02-01T19:49:12.182Z,95728.09
2023-02-01T19:52:54.877Z,95707.59
2023-02-01T19:56:39.334Z,95718.81
2023-02-01T20:00:22.496Z,95732.94
2023-02-01T20:04:06.440Z,95714.94
2023-02-01T20:07:49.162Z,95733.50
2023-02-01T20:11:32.000Z,95752.69
2023-02-01T20:15:16.269Z,95747.47
2023-02-01T20:18:59.003Z,95737.38
2023-02-01T20:22:41.779Z,95754.69
2023-02-01T20:26:25.907Z,95739.88
2023-02-01T20:30:10.056Z,95733.84
2023-02-01T20:33:54.182Z,95741.38
2023-02-01T20:37:37.739Z,95777.22
2023-02-01T20:41:20.675Z,95749.25
2023-02-01T20:45:04.007Z,95730.66
2023-02-01T20:48:48.234Z,95737.22
2023-02-01T20:52:32.218Z,95748.59
2023-02-01T20:56:15.745Z,95784.06
2023-02-01T20:59:59.637Z,95732.59
2023-02-01T21:03:43.144Z,95735.41
2023-02-01T21:07:25.854Z,95773.91
2023-02-01T21:11:11.343Z,95745.75
2023-02-01T21:14:55.226Z,95747.19
2023-02-01T21:18:38.533Z,95723.75
2023-02-01T21:22:21.214Z,95720.81
2023-02-01T21:26:04.607Z,95705.38
2023-02-01T21:29:49.353Z,95736.78
2023-02-01T21:33:32.142Z,95714.63
2023-02-01T21:37:15.141Z,95723.09
2023-02-01T21:41:16.346Z,95717.53
2023-02-01T21:45:02.291Z,95728.19
2023-02-01T21:49:04.150Z,95717.47
2023-02-01T21:52:48.031Z,95703.81
2023-02-01T21:56:31.185Z,95767.88
2023-02-01T22:00:17.357Z,95734.84
2023-02-01T22:04:01.283Z,95710.75
2023-02-01T22:07:44.422Z,95713.59
2023-02-01T22:11:27.246Z,95729.53
2023-02-01T22:15:10.704Z,95744.00
2023-02-01T22:18:55.478Z,95721.34
2023-02-01T22:22:38.113Z,95711.97
2023-02-01T22:26:21.285Z,95739.25
2023-02-01T22:30:04.030Z,95736.66
2023-02-01T22:33:47.108Z,95762.69
2023-02-01T22:37:31.121Z,95749.81
2023-02-01T22:41:14.063Z,95776.66
2023-02-01T22:44:58.395Z,95734.06
2023-02-01T22:48:42.359Z,95724.97
2023-02-01T22:52:25.036Z,95711.78
2023-02-01T22:56:09.150Z,95734.00
2023-02-01T22:59:51.820Z,95720.34
2023-02-01T23:03:35.175Z,95805.66
2023-02-01T23:07:17.937Z,95728.06
2023-02-01T23:11:01.589Z,95734.09
2023-02-01T23:14:59.563Z,95717.97
2023-02-01T23:18:42.605Z,95710.84
2023-02-01T23:22:25.314Z,95715.38
2023-02-01T23:26:08.327Z,95708.59
2023-02-01T23:29:52.309Z,95733.94
2023-02-01T23:33:34.950Z,95725.84
2023-02-01T23:37:17.763Z,95742.41
2023-02-01T23:41:01.657Z,95697.88
2023-02-01T23:44:44.337Z,95720.63
2023-02-01T23:48:30.478Z,95720.63
2023-02-01T23:52:13.232Z,95727.69
2023-02-01T23:56:01.897Z,95720.84
2023-02-01T23:59:44.846Z,95741.19
